ěÝzenÝ letovÚho provozu ╚eskÚ republiky
Letiste: LKPD Aktualizace: 27.02.2020 00:30:27  UTC
 METAR LKPD 27.02. 00:30 ...
METAR LKPD 270030Z 25009KT CAVOK 02/M01 Q1003 RMK BLU=
 TAF LKPD 26.02. 23:00 ...
TAF LKPD 262300Z 2700/2800 27012KT 9999 BKN030      TEMPO 2700/2710 27016G26KT 6000 SHRASN BKN025      PROB30 TEMPO 2710/2715 25014G28KT 7000 SHRASN SCT020TCU BKN030      BECMG 2715/2718 12008KT=